createdAt,value
2022-11-05T00:00:04.847Z,100.00
2022-11-05T00:02:49.583Z,100.00
2022-11-05T00:05:34.649Z,100.00
2022-11-05T00:08:22.618Z,100.00
2022-11-05T00:10:49.202Z,100.00
2022-11-05T00:13:34.363Z,100.00
2022-11-05T00:16:19.262Z,100.00
2022-11-05T00:19:05.778Z,100.00
2022-11-05T00:21:51.642Z,100.00
2022-11-05T00:24:37.172Z,100.00
2022-11-05T00:27:04.512Z,100.00
2022-11-05T00:29:31.226Z,100.00
2022-11-05T00:31:58.053Z,100.00
2022-11-05T00:34:24.794Z,100.00
2022-11-05T00:36:51.327Z,100.00
2022-11-05T00:39:17.826Z,100.00
2022-11-05T00:41:44.362Z,100.00
2022-11-05T00:44:29.301Z,100.00
2022-11-05T00:47:15.826Z,100.00
2022-11-05T00:49:42.230Z,100.00
2022-11-05T00:52:27.010Z,100.00
2022-11-05T00:54:53.436Z,100.00
2022-11-05T00:57:20.138Z,100.00
2022-11-05T00:59:46.515Z,100.00
2022-11-05T01:02:12.968Z,100.00
2022-11-05T01:04:39.388Z,100.00
2022-11-05T01:07:05.751Z,100.00
2022-11-05T01:09:32.233Z,100.00
2022-11-05T01:11:58.598Z,100.00
2022-11-05T01:14:25.262Z,100.00
2022-11-05T01:16:51.581Z,100.00
2022-11-05T01:19:17.963Z,100.00
2022-11-05T01:21:44.353Z,100.00
2022-11-05T01:24:10.999Z,100.00
2022-11-05T01:26:37.363Z,100.00
2022-11-05T01:29:03.798Z,100.00
2022-11-05T01:31:30.438Z,100.00
2022-11-05T01:33:56.758Z,100.00
2022-11-05T01:36:23.172Z,100.00
2022-11-05T01:38:49.710Z,100.00
2022-11-05T01:41:16.272Z,100.00
2022-11-05T01:43:47.915Z,100.00
2022-11-05T01:46:16.202Z,100.00
2022-11-05T01:48:42.771Z,100.00
2022-11-05T01:51:11.736Z,100.00
2022-11-05T01:53:51.842Z,100.00
2022-11-05T01:56:24.949Z,100.00
2022-11-05T01:59:13.115Z,100.00
2022-11-05T02:01:39.602Z,100.00
2022-11-05T02:04:08.691Z,100.00
2022-11-05T02:06:37.403Z,100.00
2022-11-05T02:09:08.860Z,100.00
2022-11-05T02:11:35.320Z,100.00
2022-11-05T02:14:02.745Z,100.00
2022-11-05T02:16:41.301Z,100.00
2022-11-05T02:19:49.603Z,100.00
2022-11-05T02:22:59.715Z,100.00
2022-11-05T02:25:57.411Z,100.00
2022-11-05T02:28:29.878Z,100.00
2022-11-05T02:31:21.169Z,100.00
2022-11-05T02:34:06.456Z,100.00
2022-11-05T02:36:43.568Z,100.00
2022-11-05T02:39:19.090Z,100.00
2022-11-05T02:42:08.411Z,100.00
2022-11-05T02:45:02.570Z,100.00
2022-11-05T02:48:06.348Z,100.00
2022-11-05T02:51:10.523Z,100.00
2022-11-05T02:53:37.029Z,100.00
2022-11-05T02:56:13.821Z,100.00
2022-11-05T02:58:40.216Z,100.00
2022-11-05T03:01:07.034Z,100.00
2022-11-05T03:03:43.318Z,100.00
2022-11-05T03:06:31.543Z,100.00
2022-11-05T03:09:22.952Z,100.00
2022-11-05T03:12:18.647Z,100.00
2022-11-05T03:14:45.052Z,100.00
2022-11-05T03:17:53.176Z,100.00
2022-11-05T03:20:35.826Z,100.00
2022-11-05T03:23:14.959Z,100.00
2022-11-05T03:25:52.607Z,100.00
2022-11-05T03:28:22.715Z,100.00
2022-11-05T03:30:51.553Z,100.00
2022-11-05T03:33:23.807Z,100.00
2022-11-05T03:35:55.325Z,100.00
2022-11-05T03:38:29.151Z,100.00
2022-11-05T03:40:58.949Z,100.00
2022-11-05T03:43:30.177Z,100.00
2022-11-05T03:46:01.847Z,100.00
2022-11-05T03:48:32.446Z,100.00
2022-11-05T03:51:23.031Z,100.00
2022-11-05T03:53:57.715Z,100.00
2022-11-05T03:56:31.053Z,100.00
2022-11-05T03:59:00.435Z,100.00
2022-11-05T04:01:27.648Z,100.00
2022-11-05T04:03:54.122Z,100.00
2022-11-05T04:06:39.192Z,100.00
2022-11-05T04:09:24.082Z,100.00
2022-11-05T04:12:08.919Z,100.00
2022-11-05T04:14:35.450Z,100.00
2022-11-05T04:17:11.391Z,100.00
2022-11-05T04:20:05.622Z,100.00
2022-11-05T04:22:52.844Z,100.00
2022-11-05T04:25:21.331Z,100.00
2022-11-05T04:27:48.491Z,100.00
2022-11-05T04:30:19.992Z,100.00
2022-11-05T04:32:59.166Z,100.00
2022-11-05T04:35:31.811Z,100.00
2022-11-05T04:37:58.477Z,100.00
2022-11-05T04:40:25.062Z,100.00
2022-11-05T04:42:53.999Z,100.00
2022-11-05T04:45:20.492Z,100.00
2022-11-05T04:47:46.903Z,100.00
2022-11-05T04:50:13.518Z,100.00
2022-11-05T04:52:40.170Z,100.00
2022-11-05T04:55:07.403Z,100.00
2022-11-05T04:57:34.108Z,100.00
2022-11-05T05:00:01.220Z,100.00
2022-11-05T05:02:27.788Z,100.00
2022-11-05T05:04:54.123Z,100.00
2022-11-05T05:07:20.557Z,100.00
2022-11-05T05:09:47.263Z,100.00
2022-11-05T05:12:13.664Z,100.00
2022-11-05T05:14:40.163Z,100.00
2022-11-05T05:17:06.718Z,100.00
2022-11-05T05:19:56.033Z,100.00
2022-11-05T05:22:22.500Z,100.00
2022-11-05T05:24:52.796Z,100.00
2022-11-05T05:27:19.799Z,100.00
2022-11-05T05:29:46.088Z,100.00
2022-11-05T05:32:12.812Z,100.00
2022-11-05T05:34:39.151Z,100.00
2022-11-05T05:37:06.733Z,100.00
2022-11-05T05:39:33.182Z,100.00
2022-11-05T05:41:59.571Z,100.00
2022-11-05T05:44:26.077Z,100.00
2022-11-05T05:46:53.714Z,100.00
2022-11-05T05:49:20.106Z,100.00
2022-11-05T05:51:48.753Z,100.00
2022-11-05T05:54:15.658Z,100.00
2022-11-05T05:56:45.731Z,100.00
2022-11-05T05:59:12.629Z,100.00
2022-11-05T06:01:39.038Z,100.00
2022-11-05T06:04:05.545Z,100.00
2022-11-05T06:06:31.935Z,100.00
2022-11-05T06:08:58.752Z,100.00
2022-11-05T06:11:25.562Z,100.00
2022-11-05T06:13:52.134Z,100.00
2022-11-05T06:16:21.580Z,100.00
2022-11-05T06:18:48.173Z,100.00
2022-11-05T06:21:17.150Z,100.00
2022-11-05T06:23:45.434Z,100.00
2022-11-05T06:26:14.050Z,100.00
2022-11-05T06:28:42.013Z,100.00
2022-11-05T06:31:09.407Z,100.00
2022-11-05T06:33:36.319Z,100.00
2022-11-05T06:36:04.836Z,100.00
2022-11-05T06:38:36.696Z,100.00
2022-11-05T06:41:09.831Z,100.00
2022-11-05T06:43:36.982Z,100.00
2022-11-05T06:46:04.251Z,100.00
2022-11-05T06:48:30.862Z,100.00
2022-11-05T06:50:57.258Z,100.00
2022-11-05T06:53:23.764Z,100.00
2022-11-05T06:55:50.130Z,100.00
2022-11-05T06:58:16.788Z,100.00
2022-11-05T07:00:43.248Z,100.00
2022-11-05T07:03:11.979Z,100.00
2022-11-05T07:05:41.511Z,100.00
2022-11-05T07:08:08.012Z,100.00
2022-11-05T07:10:34.627Z,100.00
2022-11-05T07:13:08.049Z,100.00
2022-11-05T07:15:36.466Z,100.00
2022-11-05T07:18:03.682Z,100.00
2022-11-05T07:20:33.993Z,100.00
2022-11-05T07:23:12.291Z,100.00
2022-11-05T07:25:40.353Z,100.00
2022-11-05T07:28:06.826Z,100.00
2022-11-05T07:30:34.286Z,100.00
2022-11-05T07:33:00.767Z,100.00
2022-11-05T07:35:28.071Z,100.00
2022-11-05T07:37:55.364Z,100.00
2022-11-05T07:40:26.712Z,100.00
2022-11-05T07:42:58.658Z,100.00
2022-11-05T07:45:26.628Z,100.00
2022-11-05T07:47:58.486Z,100.00
2022-11-05T07:50:27.650Z,100.00
2022-11-05T07:53:00.033Z,100.00
2022-11-05T07:55:26.474Z,100.00
2022-11-05T07:57:52.865Z,100.00
2022-11-05T08:00:21.954Z,100.00
2022-11-05T08:03:07.096Z,100.00
2022-11-05T08:05:38.928Z,100.00
2022-11-05T08:08:09.226Z,100.00
2022-11-05T08:10:37.153Z,100.00
2022-11-05T08:13:05.652Z,100.00
2022-11-05T08:15:32.511Z,100.00
2022-11-05T08:18:05.030Z,100.00
2022-11-05T08:20:32.383Z,100.00
2022-11-05T08:22:58.785Z,100.00
2022-11-05T08:25:25.991Z,100.00
2022-11-05T08:28:00.531Z,100.00
2022-11-05T08:30:28.115Z,100.00
2022-11-05T08:33:14.386Z,100.00
2022-11-05T08:35:41.074Z,100.00
2022-11-05T08:38:10.338Z,100.00
2022-11-05T08:40:37.072Z,100.00
2022-11-05T08:43:06.616Z,100.00
2022-11-05T08:45:33.749Z,100.00
2022-11-05T08:48:01.248Z,100.00
2022-11-05T08:50:28.591Z,100.00
2022-11-05T08:52:55.091Z,100.00
2022-11-05T08:55:21.733Z,100.00
2022-11-05T08:57:48.078Z,100.00
2022-11-05T09:00:15.384Z,100.00
2022-11-05T09:02:41.942Z,100.00
2022-11-05T09:05:08.899Z,100.00
2022-11-05T09:07:35.299Z,100.00
2022-11-05T09:10:01.782Z,100.00
2022-11-05T09:12:28.294Z,100.00
2022-11-05T09:14:55.910Z,100.00
2022-11-05T09:17:22.778Z,100.00
2022-11-05T09:19:49.339Z,100.00
2022-11-05T09:22:15.796Z,100.00
2022-11-05T09:24:43.327Z,100.00
2022-11-05T09:27:11.766Z,100.00
2022-11-05T09:29:38.324Z,100.00
2022-11-05T09:32:05.183Z,100.00
2022-11-05T09:34:32.281Z,100.00
2022-11-05T09:36:58.789Z,100.00
2022-11-05T09:39:25.174Z,100.00
2022-11-05T09:42:02.716Z,100.00
2022-11-05T09:44:47.578Z,100.00
2022-11-05T09:47:31.166Z,100.00
2022-11-05T09:50:00.727Z,100.00
2022-11-05T09:52:30.694Z,100.00
2022-11-05T09:54:58.143Z,100.00
2022-11-05T09:57:32.522Z,100.00
2022-11-05T10:00:02.975Z,100.00
2022-11-05T10:03:07.334Z,100.00
2022-11-05T10:05:38.007Z,100.00
2022-11-05T10:08:18.889Z,100.00
2022-11-05T10:10:49.881Z,100.00
2022-11-05T10:13:29.993Z,100.00
2022-11-05T10:16:12.224Z,100.00
2022-11-05T10:18:46.327Z,100.00
2022-11-05T10:21:32.307Z,100.00
2022-11-05T10:24:20.351Z,100.00
2022-11-05T10:26:49.265Z,100.00
2022-11-05T10:29:26.972Z,100.00
2022-11-05T10:31:55.427Z,100.00
2022-11-05T10:34:26.525Z,100.00
2022-11-05T10:36:54.282Z,100.00
2022-11-05T10:39:21.644Z,100.00
2022-11-05T10:41:56.954Z,100.00
2022-11-05T10:44:48.358Z,100.00
2022-11-05T10:47:23.868Z,100.00
2022-11-05T10:50:01.224Z,100.00
2022-11-05T10:52:34.964Z,100.00
2022-11-05T10:55:16.093Z,100.00
2022-11-05T10:57:42.702Z,100.00
2022-11-05T11:00:15.643Z,100.00
2022-11-05T11:02:43.643Z,100.00
2022-11-05T11:05:18.702Z,100.00
2022-11-05T11:07:59.750Z,100.00
2022-11-05T11:10:28.563Z,100.00
2022-11-05T11:12:57.039Z,100.00
2022-11-05T11:15:32.490Z,100.00
2022-11-05T11:18:23.928Z,100.00
2022-11-05T11:20:50.363Z,100.00
2022-11-05T11:23:17.234Z,100.00
2022-11-05T11:26:02.476Z,100.00
2022-11-05T11:28:47.167Z,100.00
2022-11-05T11:31:25.245Z,100.00
2022-11-05T11:33:58.863Z,96.66
2022-11-05T11:36:33.595Z,96.24
2022-11-05T11:39:02.035Z,87.58
2022-11-05T11:41:51.677Z,91.40
2022-11-05T11:44:30.993Z,94.41
2022-11-05T11:47:01.933Z,97.88
2022-11-05T11:49:42.642Z,100.00
2022-11-05T11:52:15.358Z,100.00
2022-11-05T11:54:41.882Z,100.00
2022-11-05T11:57:25.203Z,100.00
2022-11-05T12:00:08.509Z,96.99
2022-11-05T12:03:02.151Z,100.00
2022-11-05T12:05:31.776Z,100.00
2022-11-05T12:08:29.539Z,100.00
2022-11-05T12:11:18.154Z,100.00
2022-11-05T12:14:00.271Z,100.00
2022-11-05T12:16:32.806Z,100.00
2022-11-05T12:19:10.707Z,100.00
2022-11-05T12:22:05.326Z,97.52
2022-11-05T12:24:58.943Z,100.00
2022-11-05T12:28:05.262Z,100.00
2022-11-05T12:30:52.131Z,96.58
2022-11-05T12:33:25.939Z,91.20
2022-11-05T12:36:04.957Z,91.88
2022-11-05T12:38:57.364Z,88.95
2022-11-05T12:41:38.932Z,90.16
2022-11-05T12:44:27.778Z,87.12
2022-11-05T12:47:12.587Z,87.98
2022-11-05T12:50:11.271Z,83.24
2022-11-05T12:52:56.600Z,87.93
2022-11-05T12:55:34.412Z,91.83
2022-11-05T12:58:38.174Z,93.75
2022-11-05T13:01:10.957Z,82.38
2022-11-05T13:03:43.586Z,76.29
2022-11-05T13:06:21.849Z,75.85
2022-11-05T13:09:02.119Z,69.86
2022-11-05T13:11:39.752Z,66.30
2022-11-05T13:14:23.709Z,61.22
2022-11-05T13:16:54.995Z,64.75
2022-11-05T13:19:27.156Z,61.70
2022-11-05T13:21:59.459Z,62.95
2022-11-05T13:24:37.624Z,62.54
2022-11-05T13:27:12.415Z,58.11
2022-11-05T13:29:47.740Z,58.98
2022-11-05T13:32:31.169Z,59.70
2022-11-05T13:35:00.940Z,52.15
2022-11-05T13:37:50.699Z,54.43
2022-11-05T13:40:21.319Z,55.08
2022-11-05T13:42:58.819Z,56.70
2022-11-05T13:45:43.207Z,57.01
2022-11-05T13:48:38.888Z,57.83
2022-11-05T13:51:24.178Z,59.49
2022-11-05T13:54:09.322Z,60.94
2022-11-05T13:56:55.032Z,59.19
2022-11-05T13:59:34.890Z,63.62
2022-11-05T14:02:10.363Z,68.17
2022-11-05T14:04:45.606Z,74.67
2022-11-05T14:07:20.804Z,75.68
2022-11-05T14:09:55.155Z,77.83
2022-11-05T14:12:29.275Z,80.90
2022-11-05T14:15:21.565Z,76.57
2022-11-05T14:18:03.479Z,74.60
2022-11-05T14:20:35.899Z,80.98
2022-11-05T14:23:17.777Z,83.44
2022-11-05T14:25:44.389Z,84.29
2022-11-05T14:28:29.579Z,85.30
2022-11-05T14:30:56.283Z,86.16
2022-11-05T14:33:25.564Z,85.93
2022-11-05T14:35:53.716Z,84.42
2022-11-05T14:38:28.985Z,87.55
2022-11-05T14:41:01.418Z,85.19
2022-11-05T14:43:32.056Z,85.39
2022-11-05T14:46:01.005Z,88.53
2022-11-05T14:48:46.280Z,87.62
2022-11-05T14:51:27.490Z,86.42
2022-11-05T14:54:18.237Z,87.12
2022-11-05T14:56:51.756Z,89.02
2022-11-05T14:59:24.339Z,91.19
2022-11-05T15:02:09.682Z,92.93
2022-11-05T15:04:40.474Z,93.43
2022-11-05T15:07:06.920Z,92.92
2022-11-05T15:09:55.241Z,92.83
2022-11-05T15:12:46.491Z,93.34
2022-11-05T15:15:21.935Z,93.95
2022-11-05T15:17:57.895Z,95.78
2022-11-05T15:20:39.622Z,94.94
2022-11-05T15:23:11.756Z,96.52
2022-11-05T15:25:47.759Z,99.41
2022-11-05T15:28:18.940Z,99.37
2022-11-05T15:31:18.127Z,100.00
2022-11-05T15:33:48.971Z,100.00
2022-11-05T15:36:31.697Z,100.00
2022-11-05T15:39:28.022Z,100.00
2022-11-05T15:41:46.396Z,100.00
2022-11-05T15:44:39.245Z,100.00
2022-11-05T15:47:16.850Z,100.00
2022-11-05T15:49:50.733Z,98.11
2022-11-05T15:52:20.039Z,100.00
2022-11-05T15:55:05.562Z,100.00
2022-11-05T15:57:32.382Z,100.00
2022-11-05T15:59:59.148Z,100.00
2022-11-05T16:02:30.835Z,100.00
2022-11-05T16:04:58.946Z,100.00
2022-11-05T16:07:27.037Z,100.00
2022-11-05T16:10:01.640Z,100.00
2022-11-05T16:12:35.882Z,100.00
2022-11-05T16:15:21.893Z,100.00
2022-11-05T16:18:01.657Z,100.00
2022-11-05T16:20:33.647Z,100.00
2022-11-05T16:23:06.289Z,100.00
2022-11-05T16:25:41.610Z,100.00
2022-11-05T16:28:26.408Z,100.00
2022-11-05T16:30:57.183Z,100.00
2022-11-05T16:33:26.119Z,100.00
2022-11-05T16:35:53.093Z,100.00
2022-11-05T16:38:20.366Z,100.00
2022-11-05T16:40:46.767Z,100.00
2022-11-05T16:43:25.347Z,100.00
2022-11-05T16:45:54.876Z,100.00
2022-11-05T16:48:21.545Z,100.00
2022-11-05T16:50:48.245Z,100.00
2022-11-05T16:53:14.671Z,100.00
2022-11-05T16:55:43.046Z,100.00
2022-11-05T16:58:20.898Z,100.00
2022-11-05T17:00:49.488Z,100.00
2022-11-05T17:03:16.124Z,100.00
2022-11-05T17:05:42.779Z,100.00
2022-11-05T17:08:09.575Z,100.00
2022-11-05T17:10:36.123Z,100.00
2022-11-05T17:13:02.959Z,100.00
2022-11-05T17:15:35.242Z,100.00
2022-11-05T17:18:02.949Z,100.00
2022-11-05T17:20:44.036Z,100.00
2022-11-05T17:23:13.313Z,100.00
2022-11-05T17:25:42.019Z,100.00
2022-11-05T17:28:10.070Z,100.00
2022-11-05T17:30:40.388Z,100.00
2022-11-05T17:33:09.037Z,100.00
2022-11-05T17:35:38.587Z,100.00
2022-11-05T17:38:05.264Z,100.00
2022-11-05T17:40:36.672Z,100.00
2022-11-05T17:43:04.470Z,100.00
2022-11-05T17:45:31.034Z,100.00
2022-11-05T17:47:57.416Z,100.00
2022-11-05T17:50:23.791Z,100.00
2022-11-05T17:52:50.224Z,100.00
2022-11-05T17:55:17.270Z,100.00
2022-11-05T17:57:47.910Z,100.00
2022-11-05T18:00:20.255Z,100.00
2022-11-05T18:02:48.455Z,100.00
2022-11-05T18:05:17.094Z,100.00
2022-11-05T18:07:44.371Z,100.00
2022-11-05T18:10:12.615Z,100.00
2022-11-05T18:12:39.756Z,100.00
2022-11-05T18:15:07.302Z,100.00
2022-11-05T18:17:35.129Z,100.00
2022-11-05T18:20:01.844Z,100.00
2022-11-05T18:22:28.325Z,100.00
2022-11-05T18:24:55.597Z,100.00
2022-11-05T18:27:24.552Z,100.00
2022-11-05T18:29:51.130Z,100.00
2022-11-05T18:32:17.549Z,100.00
2022-11-05T18:34:43.984Z,100.00
2022-11-05T18:37:10.962Z,100.00
2022-11-05T18:39:37.752Z,100.00
2022-11-05T18:42:04.413Z,100.00
2022-11-05T18:44:34.931Z,100.00
2022-11-05T18:47:06.705Z,100.00
2022-11-05T18:49:33.179Z,100.00
2022-11-05T18:51:59.654Z,100.00
2022-11-05T18:54:26.402Z,100.00
2022-11-05T18:56:52.907Z,100.00
2022-11-05T18:59:36.719Z,100.00
2022-11-05T19:02:05.924Z,100.00
2022-11-05T19:04:34.628Z,100.00
2022-11-05T19:07:04.750Z,100.00
2022-11-05T19:09:33.869Z,100.00
2022-11-05T19:12:00.708Z,100.00
2022-11-05T19:14:27.244Z,100.00
2022-11-05T19:16:53.776Z,100.00
2022-11-05T19:19:20.190Z,100.00
2022-11-05T19:21:46.566Z,100.00
2022-11-05T19:24:20.127Z,100.00
2022-11-05T19:26:47.407Z,100.00
2022-11-05T19:29:13.904Z,100.00
2022-11-05T19:31:40.381Z,100.00
2022-11-05T19:34:07.007Z,100.00
2022-11-05T19:36:33.677Z,100.00
2022-11-05T19:39:06.507Z,100.00
2022-11-05T19:41:33.287Z,100.00
2022-11-05T19:44:01.494Z,100.00
2022-11-05T19:46:29.567Z,100.00
2022-11-05T19:48:56.982Z,100.00
2022-11-05T19:51:25.864Z,100.00
2022-11-05T19:53:53.343Z,100.00
2022-11-05T19:56:23.326Z,100.00
2022-11-05T19:58:50.372Z,100.00
2022-11-05T20:01:24.094Z,100.00
2022-11-05T20:03:54.890Z,100.00
2022-11-05T20:06:29.489Z,100.00
2022-11-05T20:11:45.314Z,100.00
2022-11-05T20:14:14.995Z,100.00
2022-11-05T20:16:42.759Z,100.00
2022-11-05T20:19:12.981Z,100.00
2022-11-05T20:21:39.570Z,100.00
2022-11-05T20:24:06.574Z,100.00
2022-11-05T20:26:33.426Z,100.00
2022-11-05T20:29:00.426Z,100.00
2022-11-05T20:31:27.158Z,100.00
2022-11-05T20:33:54.452Z,100.00
2022-11-05T20:36:23.166Z,100.00
2022-11-05T20:38:51.427Z,100.00
2022-11-05T20:41:19.125Z,100.00
2022-11-05T20:43:47.743Z,100.00
2022-11-05T20:46:17.055Z,100.00
2022-11-05T20:48:44.325Z,100.00
2022-11-05T20:51:14.671Z,100.00
2022-11-05T20:53:42.383Z,100.00
2022-11-05T20:56:16.411Z,100.00
2022-11-05T20:58:43.191Z,100.00
2022-11-05T21:01:12.204Z,100.00
2022-11-05T21:03:38.965Z,100.00
2022-11-05T21:06:06.347Z,100.00
2022-11-05T21:08:33.894Z,100.00
2022-11-05T21:11:00.845Z,100.00
2022-11-05T21:13:28.012Z,100.00
2022-11-05T21:15:56.869Z,100.00
2022-11-05T21:18:25.981Z,100.00
2022-11-05T21:20:53.968Z,100.00
2022-11-05T21:23:20.831Z,100.00
2022-11-05T21:25:47.839Z,100.00
2022-11-05T21:28:15.351Z,100.00
2022-11-05T21:30:47.278Z,100.00
2022-11-05T21:33:15.492Z,100.00
2022-11-05T21:35:44.007Z,100.00
2022-11-05T21:38:12.391Z,100.00
2022-11-05T21:40:39.856Z,100.00
2022-11-05T21:43:06.946Z,100.00
2022-11-05T21:45:33.445Z,100.00
2022-11-05T21:48:00.099Z,100.00
2022-11-05T21:50:45.037Z,100.00
2022-11-05T21:53:34.591Z,100.00
2022-11-05T21:56:23.991Z,100.00
2022-11-05T21:59:09.844Z,100.00
2022-11-05T22:01:36.270Z,100.00
2022-11-05T22:04:03.415Z,100.00
2022-11-05T22:06:32.871Z,100.00
2022-11-05T22:09:15.103Z,100.00
2022-11-05T22:11:41.834Z,100.00
2022-11-05T22:14:08.164Z,100.00
2022-11-05T22:16:34.620Z,100.00
2022-11-05T22:19:01.050Z,100.00
2022-11-05T22:21:27.550Z,100.00
2022-11-05T22:23:53.960Z,100.00
2022-11-05T22:26:20.877Z,100.00
2022-11-05T22:28:47.778Z,100.00
2022-11-05T22:31:15.888Z,100.00
2022-11-05T22:33:43.000Z,100.00
2022-11-05T22:36:10.333Z,100.00
2022-11-05T22:38:36.933Z,100.00
2022-11-05T22:41:10.441Z,100.00
2022-11-05T22:43:37.483Z,100.00
2022-11-05T22:46:09.380Z,100.00
2022-11-05T22:48:37.268Z,100.00
2022-11-05T22:51:05.913Z,100.00
2022-11-05T22:53:34.335Z,100.00
2022-11-05T22:56:05.589Z,100.00
2022-11-05T22:58:32.490Z,100.00
2022-11-05T23:00:58.874Z,100.00
2022-11-05T23:03:26.141Z,100.00
2022-11-05T23:06:05.420Z,100.00
2022-11-05T23:08:52.039Z,100.00
2022-11-05T23:11:38.529Z,100.00
2022-11-05T23:14:10.616Z,100.00
2022-11-05T23:16:56.316Z,100.00
2022-11-05T23:19:42.124Z,100.00
2022-11-05T23:22:39.755Z,100.00
2022-11-05T23:25:09.479Z,100.00
2022-11-05T23:27:37.926Z,100.00
2022-11-05T23:30:11.511Z,100.00
2022-11-05T23:32:38.309Z,100.00
2022-11-05T23:35:05.215Z,100.00
2022-11-05T23:37:50.798Z,100.00
2022-11-05T23:40:22.864Z,100.00
2022-11-05T23:43:08.480Z,100.00
2022-11-05T23:45:56.927Z,100.00
2022-11-05T23:48:34.763Z,100.00
2022-11-05T23:51:08.066Z,100.00
2022-11-05T23:53:37.702Z,100.00
2022-11-05T23:56:12.757Z,100.00
2022-11-05T23:58:40.365Z,100.00
